Estación Meteorológica Peña el Pijo (Robertgarden) [ 02/21/19 11:35:29 CET ]

Fecha Hora Presion(HPa) Temp (°C) Humedad % Rocio (°C) Viento ( m/s) Direccion Lluvia 1Hora(mm) Lluvia 24H(mm) LLuvia Total(mm)
2018-Dec-31 01:01:42 1018.400 -2.3 80 -5.3         161.09
2018-Dec-31 02:04:07 1018.300 -2.1 81 -4.9         161.09
2018-Dec-31 03:01:55 1018.300 -2.8 82 -5.5         161.09
2018-Dec-31 04:01:54 1018.400 -3.4 82 -6.1         161.09
2018-Dec-31 05:01:56 1017.900 -3.9 82 -6.5         161.09
2018-Dec-31 06:01:43 1017.500 -4.2 83 -6.6         161.09
2018-Dec-31 07:01:43 1018.100 -4.5 84 -6.8         161.09
2018-Dec-31 08:01:50 1018.600 -5.0 84 -7.3         161.09
2018-Dec-31 09:01:56 1019.200 -5.1 84 -7.4         161.09
2018-Dec-31 10:01:44 1019.400 0.2 87 -1.7         161.09
2018-Dec-31 11:01:45 1019.300 7.2 77 3.4         161.09
2018-Dec-31 12:01:48 1018.500 12.4 51 2.5         161.09
2018-Dec-31 13:02:03 1017.900 14.8 28 -3.7         161.09
2018-Dec-31 14:01:51 1017.000 17.6 25 -2.9         161.09
2018-Dec-31 15:01:51 1017.100 17.3 24 -3.7         161.09
2018-Dec-31 16:01:42 1017.400 16.4 25 -3.9         161.09
2018-Dec-31 17:01:43 1017.600 13.1 30 -4.1         161.09
2018-Dec-31 18:01:59 1018.300 9.3 38 -4.4         161.09
2018-Dec-31 19:01:36 1018.600 5.0 46 -5.8         161.09
2018-Dec-31 20:01:48 1019.000 3.0 53 -5.7         161.09
2018-Dec-31 21:01:36 1019.200 1.7 57 -5.9         161.09
2018-Dec-31 22:01:48 1019.400 1.1 59 -6.0         161.09
2018-Dec-31 23:01:52 1019.300 0.6 61 -6.1         161.09

Temperatura Máxima:17°    Temperatura Mínima:-5°
Presión Máxima:1019.400 Hpa    Presión Mínima:1017.000 Hpa


Volver